Michigan — WDF5344 — position and weather

sailwx.info

Track history (hours):
 
Tides and Currents Weather Stations Pressure Air Temp Water Temp Dewpoint Dewpoint Depression Visibility Wind Speed Wind Dir Waves Ship Positions

Michigan

More information available from US FCC via Universal Licensing System and Coast Guard Vessel Documentation Center.

Last reported at 2014-Sep-01 02:00 UTC. Time now 2014-Sep-01 11:27 UTC.
Position N 45°30' W 083°48'.

Length 144 m; draft 4.3 m.

Type: Ship (hazmat cat D). MMSI: 303583000.

Wind from 190 at 9 knots

Barometer 1010.4 mb
Air temperature 19.6 ° C
Visibility: greater than 10.8 NM

Date/timePositionNaut miles runAvg speedWind from/ knotsBaromVisibWave heightAir tempDewpointWater temp
2014-Sep-01 02:00N 45°30' W 083°48'99 4.9 190 / 91010.410.8 19.6
2014-Aug-31 05:33N 45°42' W 086°09'1110.9
2014-Aug-31 04:33N 45°49' W 085°56'1010.5
2014-Aug-31 03:33N 45°54' W 085°43'1010.3
2014-Aug-31 02:33N 45°53' W 085°28'1110.5
2014-Aug-31 01:33N 45°52' W 085°13'1110.5
2014-Aug-31 00:33N 45°50' W 084°58'1010.3
2014-Aug-30 23:33N 45°49' W 084°43'4376.2
2014-Aug-30 23:00N 45°30' W 083°48'3376.0 270 / 151008.410.8 0.5
2014-Aug-30 22:33N 45°44' W 084°31'10 9.8
2014-Aug-30 21:33N 45°41' W 084°17'1010.5
2014-Aug-30 20:33N 45°37' W 084°04'3053.6
2014-Aug-30 20:00N 45°18' W 083°30'   210 / 121009.1 5.4 0.5
2014-Aug-28 11:27N 43°23' W 079°06'1010.8
2014-Aug-28 10:33N 43°30' W 078°56'1110.7
2014-Aug-28 09:33N 43°37' W 078°44'1110.4
2014-Aug-28 08:30N 43°44' W 078°33'9210.3
2014-Aug-27 23:33N 44°02' W 076°27'10 9.7
2014-Aug-27 22:33N 44°10' W 076°19'9 9.1
2014-Aug-27 21:33N 44°14' W 076°08'9 8.6
2014-Aug-27 20:33N 44°19' W 075°58'9 9.3
2014-Aug-27 19:33N 44°26' W 075°50'9 9.5
2014-Aug-27 18:33N 44°34' W 075°43'11 9.5
2014-Aug-27 17:26N 44°41' W 075°32'8 8.5
2014-Aug-27 16:33N 44°46' W 075°24'6 5.6
2014-Aug-27 15:33N 44°50' W 075°19'8 8.0
2014-Aug-27 14:33N 44°54' W 075°09'9 9.1
2014-Aug-27 13:33N 44°58' W 074°57'5 5.3
2014-Aug-27 12:33N 44°59' W 074°50'4 3.7
2014-Aug-27 11:33N 44°59' W 074°45'7 7.5
2014-Aug-27 10:33N 45°03' W 074°35'8 8.3
2014-Aug-27 09:33N 45°08' W 074°26'9 8.9
2014-Aug-27 08:33N 45°13' W 074°16'8 8.5
2014-Aug-27 07:33N 45°13' W 074°04'8 7.6
2014-Aug-27 06:33N 45°18' W 073°56'1 0.9
2014-Aug-27 05:33N 45°19' W 073°55'7 7.1
2014-Aug-27 04:33N 45°24' W 073°47'8 7.7
2014-Aug-27 03:33N 45°24' W 073°37'2 2.3
2014-Aug-27 02:33N 45°24' W 073°33'5 5.3
2014-Aug-27 01:33N 45°30' W 073°31'2 2.3
2014-Aug-27 00:33N 45°32' W 073°32'3 3.3
2014-Aug-26 23:33N 45°35' W 073°30'0 0.0
2014-Aug-26 22:33N 45°35' W 073°30'0 0.0
2014-Aug-26 21:33N 45°35' W 073°30'0 0.0
2014-Aug-26 20:34N 45°35' W 073°30'0 0.0
2014-Aug-26 19:33N 45°35' W 073°30'0 0.0
2014-Aug-26 18:34N 45°35' W 073°30'0 0.0
2014-Aug-26 17:34N 45°35' W 073°30'0 0.0
2014-Aug-26 16:34N 45°35' W 073°30'0 0.0
2014-Aug-26 15:34N 45°35' W 073°30'0 0.0
2014-Aug-26 14:33N 45°35' W 073°30'0 0.0
2014-Aug-26 13:34N 45°35' W 073°30'0 0.0
2014-Aug-26 12:34N 45°35' W 073°30'0 0.0
2014-Aug-26 11:34N 45°35' W 073°30'0 0.0
2014-Aug-26 10:34N 45°35' W 073°30'0 0.0
2014-Aug-26 09:33N 45°35' W 073°30'0 0.0
2014-Aug-26 08:34N 45°35' W 073°30'0 0.0
2014-Aug-26 07:34N 45°35' W 073°30'0 0.0
2014-Aug-26 06:34N 45°35' W 073°30'0 0.0
2014-Aug-26 05:34N 45°35' W 073°30'0 0.0
2014-Aug-26 04:33N 45°35' W 073°30'0 0.0
2014-Aug-26 03:34N 45°35' W 073°30'0 0.0
2014-Aug-26 02:34N 45°35' W 073°30'2 1.9
2014-Aug-26 01:34N 45°37' W 073°30'2 1.6
2014-Aug-26 00:33N 45°38' W 073°29'0 0.0
2014-Aug-25 23:33N 45°38' W 073°29'0 0.0
2014-Aug-25 22:34N 45°38' W 073°29'0 0.0
2014-Aug-25 21:33N 45°38' W 073°29'0 0.0
2014-Aug-25 20:34N 45°38' W 073°29'0 0.0
2014-Aug-25 19:33N 45°38' W 073°29'0 0.0
2014-Aug-25 18:34N 45°38' W 073°29'0 0.0
2014-Aug-25 17:34N 45°38' W 073°29'0 0.0
2014-Aug-25 16:34N 45°38' W 073°29'0 0.0
2014-Aug-25 15:34N 45°38' W 073°29'0 0.0
2014-Aug-25 14:34N 45°38' W 073°29'0 0.0
2014-Aug-25 13:34N 45°38' W 073°29'0 0.0
2014-Aug-25 12:34N 45°38' W 073°29'7 7.2
2014-Aug-25 11:34N 45°31' W 073°32'2 2.1
2014-Aug-25 10:33N 45°29' W 073°31'3 3.5
2014-Aug-25 09:34N 45°26' W 073°30'3 3.5
2014-Aug-25 08:34N 45°24' W 073°35'7 6.9
2014-Aug-25 07:33N 45°24' W 073°44'9 9.2
2014-Aug-25 06:33N 45°19' W 073°55'1 0.8
2014-Aug-25 05:34N 45°18' W 073°56'6 6.4
2014-Aug-25 04:33N 45°13' W 074°02'1110.7
2014-Aug-25 03:33N 45°13' W 074°17'1110.8
2014-Aug-25 02:33N 45°06' W 074°29'1010.4
2014-Aug-25 01:33N 44°60' W 074°41'5 4.7
2014-Aug-25 00:33N 44°59' W 074°47'2 2.3
2014-Aug-24 23:33N 44°59' W 074°51'4 3.5
2014-Aug-24 22:33N 44°58' W 074°55'1010.0
2014-Aug-24 21:34N 44°55' W 075°09'9 8.7
2014-Aug-24 20:34N 44°50' W 075°19'8 7.8
2014-Aug-24 19:34N 44°44' W 075°27'1110.9
2014-Aug-24 18:33N 44°37' W 075°38'1110.7
2014-Aug-24 17:33N 44°29' W 075°47'2110.4
2014-Aug-24 15:31N 44°14' W 076°08'6 5.8
2014-Aug-24 14:33N 44°12' W 076°16'0 0.0
2014-Aug-24 13:30N 44°12' W 076°16'2 3.5
2014-Aug-24 13:00N 44°12' W 076°18'2 1.2 350 / 21019.2 0.0 17.0
2014-Aug-24 11:33N 44°12' W 076°16'0 0.0
2014-Aug-24 10:33N 44°12' W 076°16'3 2.7
2014-Aug-24 09:33N 44°11' W 076°19'10 9.5
2014-Aug-24 08:33N 44°03' W 076°26'1310.1
2014-Aug-24 07:16N 43°53' W 076°38'8810.0
2014-Aug-23 22:31N 43°27' W 078°33'9 9.5
2014-Aug-23 21:33N 43°24' W 078°45'10 9.6
2014-Aug-23 20:33N 43°22' W 078°58'154 3.8
2014-Aug-22 04:00N 43°30' W 082°30'   070 / 51015.9 18.8
Track history (hours):
 
Tides and Currents Weather Stations Pressure Air Temp Water Temp Dewpoint Dewpoint Depression Visibility Wind Speed Wind Dir Waves Ship Positions

Michigan

More information available from US FCC via Universal Licensing System and Coast Guard Vessel Documentation Center.

Last reported at 2014-Sep-01 02:00 UTC. Time now 2014-Sep-01 11:27 UTC.
Position N 45°30' W 083°48'.

Length 144 m; draft 4.3 m.

Type: Ship (hazmat cat D). MMSI: 303583000.

Wind from 190 at 9 knots

Barometer 1010.4 mb
Air temperature 19.6 ° C
Visibility: greater than 10.8 NM

Date/timePositionNaut miles runAvg speedWind from/ knotsBaromVisibWave heightAir tempDewpointWater temp
2014-Sep-01 02:00N 45°30' W 083°48'99 4.9 190 / 91010.410.8 19.6
2014-Aug-31 05:33N 45°42' W 086°09'1110.9
2014-Aug-31 04:33N 45°49' W 085°56'1010.5
2014-Aug-31 03:33N 45°54' W 085°43'1010.3
2014-Aug-31 02:33N 45°53' W 085°28'1110.5
2014-Aug-31 01:33N 45°52' W 085°13'1110.5
2014-Aug-31 00:33N 45°50' W 084°58'1010.3
2014-Aug-30 23:33N 45°49' W 084°43'4376.2
2014-Aug-30 23:00N 45°30' W 083°48'3376.0 270 / 151008.410.8 0.5
2014-Aug-30 22:33N 45°44' W 084°31'10 9.8
2014-Aug-30 21:33N 45°41' W 084°17'1010.5
2014-Aug-30 20:33N 45°37' W 084°04'3053.6
2014-Aug-30 20:00N 45°18' W 083°30'   210 / 121009.1 5.4 0.5
2014-Aug-28 11:27N 43°23' W 079°06'1010.8
2014-Aug-28 10:33N 43°30' W 078°56'1110.7
2014-Aug-28 09:33N 43°37' W 078°44'1110.4
2014-Aug-28 08:30N 43°44' W 078°33'9210.3
2014-Aug-27 23:33N 44°02' W 076°27'10 9.7
2014-Aug-27 22:33N 44°10' W 076°19'9 9.1
2014-Aug-27 21:33N 44°14' W 076°08'9 8.6
2014-Aug-27 20:33N 44°19' W 075°58'9 9.3
2014-Aug-27 19:33N 44°26' W 075°50'9 9.5
2014-Aug-27 18:33N 44°34' W 075°43'11 9.5
2014-Aug-27 17:26N 44°41' W 075°32'8 8.5
2014-Aug-27 16:33N 44°46' W 075°24'6 5.6
2014-Aug-27 15:33N 44°50' W 075°19'8 8.0
2014-Aug-27 14:33N 44°54' W 075°09'9 9.1
2014-Aug-27 13:33N 44°58' W 074°57'5 5.3
2014-Aug-27 12:33N 44°59' W 074°50'4 3.7
2014-Aug-27 11:33N 44°59' W 074°45'7 7.5
2014-Aug-27 10:33N 45°03' W 074°35'8 8.3
2014-Aug-27 09:33N 45°08' W 074°26'9 8.9
2014-Aug-27 08:33N 45°13' W 074°16'8 8.5
2014-Aug-27 07:33N 45°13' W 074°04'8 7.6
2014-Aug-27 06:33N 45°18' W 073°56'1 0.9
2014-Aug-27 05:33N 45°19' W 073°55'7 7.1
2014-Aug-27 04:33N 45°24' W 073°47'8 7.7
2014-Aug-27 03:33N 45°24' W 073°37'2 2.3
2014-Aug-27 02:33N 45°24' W 073°33'5 5.3
2014-Aug-27 01:33N 45°30' W 073°31'2 2.3
2014-Aug-27 00:33N 45°32' W 073°32'3 3.3
2014-Aug-26 23:33N 45°35' W 073°30'0 0.0
2014-Aug-26 22:33N 45°35' W 073°30'0 0.0
2014-Aug-26 21:33N 45°35' W 073°30'0 0.0
2014-Aug-26 20:34N 45°35' W 073°30'0 0.0
2014-Aug-26 19:33N 45°35' W 073°30'0 0.0
2014-Aug-26 18:34N 45°35' W 073°30'0 0.0
2014-Aug-26 17:34N 45°35' W 073°30'0 0.0
2014-Aug-26 16:34N 45°35' W 073°30'0 0.0
2014-Aug-26 15:34N 45°35' W 073°30'0 0.0
2014-Aug-26 14:33N 45°35' W 073°30'0 0.0
2014-Aug-26 13:34N 45°35' W 073°30'0 0.0
2014-Aug-26 12:34N 45°35' W 073°30'0 0.0
2014-Aug-26 11:34N 45°35' W 073°30'0 0.0
2014-Aug-26 10:34N 45°35' W 073°30'0 0.0
2014-Aug-26 09:33N 45°35' W 073°30'0 0.0
2014-Aug-26 08:34N 45°35' W 073°30'0 0.0
2014-Aug-26 07:34N 45°35' W 073°30'0 0.0
2014-Aug-26 06:34N 45°35' W 073°30'0 0.0
2014-Aug-26 05:34N 45°35' W 073°30'0 0.0
2014-Aug-26 04:33N 45°35' W 073°30'0 0.0
2014-Aug-26 03:34N 45°35' W 073°30'0 0.0
2014-Aug-26 02:34N 45°35' W 073°30'2 1.9
2014-Aug-26 01:34N 45°37' W 073°30'2 1.6
2014-Aug-26 00:33N 45°38' W 073°29'0 0.0
2014-Aug-25 23:33N 45°38' W 073°29'0 0.0
2014-Aug-25 22:34N 45°38' W 073°29'0 0.0
2014-Aug-25 21:33N 45°38' W 073°29'0 0.0
2014-Aug-25 20:34N 45°38' W 073°29'0 0.0
2014-Aug-25 19:33N 45°38' W 073°29'0 0.0
2014-Aug-25 18:34N 45°38' W 073°29'0 0.0
2014-Aug-25 17:34N 45°38' W 073°29'0 0.0
2014-Aug-25 16:34N 45°38' W 073°29'0 0.0
2014-Aug-25 15:34N 45°38' W 073°29'0 0.0
2014-Aug-25 14:34N 45°38' W 073°29'0 0.0
2014-Aug-25 13:34N 45°38' W 073°29'0 0.0
2014-Aug-25 12:34N 45°38' W 073°29'7 7.2
2014-Aug-25 11:34N 45°31' W 073°32'2 2.1
2014-Aug-25 10:33N 45°29' W 073°31'3 3.5
2014-Aug-25 09:34N 45°26' W 073°30'3 3.5
2014-Aug-25 08:34N 45°24' W 073°35'7 6.9
2014-Aug-25 07:33N 45°24' W 073°44'9 9.2
2014-Aug-25 06:33N 45°19' W 073°55'1 0.8
2014-Aug-25 05:34N 45°18' W 073°56'6 6.4
2014-Aug-25 04:33N 45°13' W 074°02'1110.7
2014-Aug-25 03:33N 45°13' W 074°17'1110.8
2014-Aug-25 02:33N 45°06' W 074°29'1010.4
2014-Aug-25 01:33N 44°60' W 074°41'5 4.7
2014-Aug-25 00:33N 44°59' W 074°47'2 2.3
2014-Aug-24 23:33N 44°59' W 074°51'4 3.5
2014-Aug-24 22:33N 44°58' W 074°55'1010.0
2014-Aug-24 21:34N 44°55' W 075°09'9 8.7
2014-Aug-24 20:34N 44°50' W 075°19'8 7.8
2014-Aug-24 19:34N 44°44' W 075°27'1110.9
2014-Aug-24 18:33N 44°37' W 075°38'1110.7
2014-Aug-24 17:33N 44°29' W 075°47'2110.4
2014-Aug-24 15:31N 44°14' W 076°08'6 5.8
2014-Aug-24 14:33N 44°12' W 076°16'0 0.0
2014-Aug-24 13:30N 44°12' W 076°16'2 3.5
2014-Aug-24 13:00N 44°12' W 076°18'2 1.2 350 / 21019.2 0.0 17.0
2014-Aug-24 11:33N 44°12' W 076°16'0 0.0
2014-Aug-24 10:33N 44°12' W 076°16'3 2.7
2014-Aug-24 09:33N 44°11' W 076°19'10 9.5
2014-Aug-24 08:33N 44°03' W 076°26'1310.1
2014-Aug-24 07:16N 43°53' W 076°38'8810.0
2014-Aug-23 22:31N 43°27' W 078°33'9 9.5
2014-Aug-23 21:33N 43°24' W 078°45'10 9.6
2014-Aug-23 20:33N 43°22' W 078°58'154 3.8
2014-Aug-22 04:00N 43°30' W 082°30'   070 / 51015.9 18.8

Dump ship's entire track history